Flight Track Log - Related Links

Times and Time Zones

All times are in EDT time to prevent confusion due to time zone crossing. See the SWA1521 flight status page for this flight to view local times or setup timezone preferences in your user account.

Time Position Orientation Groundspeed Altitude Reporting Facility
EDT Latitude Longitude Course Direction KTS MPH feet Rate Location/Type
Sun 09:30:38 PM 47.4614 -122.3089 North 138 159 1,500  Level Seattle Center
Sun 09:31:03 PM 47.4775 -122.3081 North 146 168 2,100 2,860 Climbing Seattle Center
Sun 09:32:04 PM 47.5414 -122.3094 359° North 209 241 5,600 3,541 Climbing Seattle Center
Sun 09:33:05 PM 47.6003 -122.2919 11° North 223 257 9,300 2,902 Climbing Seattle Center
Sun 09:34:06 PM 47.5889 -122.2042 101° East 247 284 11,500 2,066 Climbing Seattle Center
Sun 09:35:07 PM 47.4983 -122.1814 170° South 345 397 13,500 2,579 Climbing Seattle Center
Sun 09:36:07 PM 47.3947 -122.1606 172° South 374 430 16,700 3,124 Climbing Seattle Center
Sun 09:37:08 PM 47.2892 -122.1414 173° South 392 451 19,800 2,754 Climbing Seattle Center
Sun 09:38:09 PM 47.1758 -122.1331 177° South 405 466 22,300 2,361 Climbing Seattle Center
Sun 09:39:10 PM 47.0575 -122.1228 177° South 423 487 24,600 2,115 Climbing Seattle Center
Sun 09:40:11 PM 46.9342 -122.1131 177° South 447 514 26,600 1,869 Climbing Seattle Center
Sun 09:41:12 PM 46.8072 -122.1011 176° South 459 528 28,400 1,785 Climbing Seattle Center
Sun 09:42:12 PM 46.6789 -122.0917 177° South 467 537 30,200 1,736 Climbing Seattle Center
Sun 09:43:13 PM 46.5483 -122.0789 176° South 475 547 31,900 1,869 Climbing Seattle Center
Sun 09:44:14 PM 46.3903 -122.0667 177° South 479 551 34,000 1,918 Climbing Seattle Center
Sun 09:45:15 PM 46.2608 -122.0539 176° South 473 544 35,800 1,488 Climbing Seattle Center
Sun 09:46:15 PM 46.1500 -122.0442 177° South 466 536 37,000 1,140 Climbing Seattle Center
Sun 09:47:16 PM 46.0194 -122.0339 177° South 468 539 38,100 934 Climbing Seattle Center
Sun 09:48:17 PM 45.8911 -122.0244 177° South 463 533 38,900 443 Climbing Seattle Center
Sun 09:49:18 PM 45.7336 -122.0092 176° South 471 542 39,000 49 Climbing Seattle Center
Sun 09:50:19 PM 45.6044 -121.9986 177° South 466 536 39,000  Level Seattle Center
Sun 09:51:19 PM 45.4731 -121.9869 176° South 471 542 39,000  Level Seattle Center
Sun 09:52:20 PM 45.3442 -121.9767 177° South 466 536 39,000  Level Seattle Center
Sun 09:53:21 PM 45.2142 -121.9653 176° South 467 537 39,000  Level Seattle Center
Sun 09:54:22 PM 45.0806 -121.9539 177° South 481 554 39,000  Level Seattle Center
Sun 09:55:23 PM 44.9497 -121.9431 177° South 473 544 39,000  Level Seattle Center
Sun 09:56:24 PM 44.8292 -121.9344 177° South 460 529 39,000  Level Seattle Center
Sun 09:57:24 PM 44.7014 -121.9242 177° South 456 525 39,000  Level Seattle Center
Sun 09:58:25 PM 44.5733 -121.9136 177° South 459 528 39,000  Level Seattle Center
Sun 09:59:26 PM 44.4439 -121.9028 177° South 462 532 39,000  Level Seattle Center
Sun 10:00:27 PM 44.2950 -121.8917 177° South 460 529 39,000  Level Seattle Center
Sun 10:01:28 PM 44.1869 -121.8828 177° South 462 532 39,000  Level Seattle Center
Sun 10:02:28 PM 44.0597 -121.8722 177° South 462 532 39,000  Level Seattle Center
Sun 10:03:29 PM 43.9081 -121.8603 177° South 457 526 39,000  Level Seattle Center
Sun 10:04:30 PM 43.7850 -121.8511 177° South 462 532 39,000  Level Seattle Center
Sun 10:05:31 PM 43.6553 -121.8450 178° South 468 539 39,000  Level Seattle Center
Sun 10:06:32 PM 43.5267 -121.8342 177° South 463 533 39,000  Level Seattle Center
Sun 10:07:33 PM 43.3997 -121.8244 177° South 459 528 39,000  Level Seattle Center
Sun 10:08:33 PM 43.2728 -121.8144 177° South 456 525 39,000  Level Seattle Center
Sun 10:09:34 PM 43.1461 -121.8014 176° South 455 524 39,000  Level Seattle Center
Sun 10:10:35 PM 43.0189 -121.7931 177° South 456 525 39,000  Level Seattle Center
Sun 10:11:36 PM 42.8911 -121.7844 177° South 460 529 39,000  Level Seattle Center
Sun 10:12:37 PM 42.7631 -121.7767 177° South 459 528 39,000  Level Seattle Center
Sun 10:13:38 PM 42.6356 -121.7658 176° South 458 527 39,000  Level Seattle Center
Sun 10:14:39 PM 42.5086 -121.7556 177° South 457 526 39,000  Level Seattle Center
Sun 10:15:39 PM 42.3831 -121.7453 177° South 452 520 39,000  Level Seattle Center
Sun 10:16:40 PM 42.2556 -121.7361 177° South 455 524 39,000  Level Seattle Center
Sun 10:17:41 PM 42.1267 -121.7269 177° South 456 525 39,000  Level Seattle Center
Sun 10:18:42 PM 41.9956 -121.7286 181° South 461 531 39,000  Level Seattle Center
Sun 10:19:43 PM 41.8656 -121.7272 180° South 460 529 39,000  Level Seattle Center
Sun 10:20:43 PM 41.7353 -121.7264 180° South 463 533 39,000  Level Seattle Center
Sun 10:21:44 PM 41.6058 -121.7256 180° South 463 533 39,000  Level Seattle Center
Sun 10:22:45 PM 41.4772 -121.7247 180° South 462 532 39,000  Level Seattle Center
Sun 10:23:46 PM 41.3483 -121.7242 180° South 462 532 39,000  Level Seattle Center
Sun 10:24:47 PM 41.1958 -121.7231 180° South 459 528 39,000  Level Seattle Center
Sun 10:25:48 PM 41.0689 -121.7233 180° South 457 526 39,000  Level Seattle Center
Sun 10:26:49 PM 40.9425 -121.7222 180° South 454 522 39,000 -248 Level Seattle Center
Sun 10:27:49 PM 40.8158 -121.7197 179° South 452 520 38,500 -1,736 Descending Seattle Center
Sun 10:28:50 PM 40.6872 -121.7189 180° South 456 525 35,500 -2,410 Descending Seattle Center
Sun 10:29:51 PM 40.5619 -121.7203 180° South 454 522 33,600 -1,864 Descending Seattle Center
Sun 10:31:02 PM 40.4292 -121.7189 180° South 398 458 31,400 -2,136 Descending Oakland Center
Sun 10:32:03 PM 40.3214 -121.7089 176° South 388 447 28,900 -2,311 Descending Oakland Center
Sun 10:33:04 PM 40.2158 -121.6994 176° South 381 438 26,700 -2,115 Descending Oakland Center
Sun 10:34:05 PM 40.1133 -121.6908 176° South 370 426 24,600 -2,016 Descending Oakland Center
Sun 10:35:06 PM 40.0122 -121.6822 176° South 364 419 22,600 -2,016 Descending Oakland Center
Sun 10:36:07 PM 39.9147 -121.6742 176° South 353 406 20,500 -2,016 Descending Oakland Center
Sun 10:37:08 PM 39.8172 -121.6656 176° South 350 403 18,500 -2,033 Descending Oakland Center
Sun 10:38:08 PM 39.7242 -121.6572 176° South 341 392 16,400 -1,934 Descending Oakland Center
Sun 10:39:09 PM 39.6347 -121.6508 177° South 327 376 14,600 -1,820 Descending Oakland Center
Sun 10:40:10 PM 39.5500 -121.6425 176° South 312 359 12,700 -1,279 Descending Oakland Center
Sun 10:41:11 PM 39.4694 -121.6367 177° South 295 339 12,000 -885 Descending Oakland Center
Sun 10:42:12 PM 39.3969 -121.6314 177° South 269 310 10,900 -1,131 Descending Oakland Center
Sun 10:43:13 PM 39.3153 -121.6242 176° South 284 327 9,700 -1,426 Descending Oakland Center
Sun 10:44:14 PM 39.2239 -121.6167 176° South 280 322 8,000 -1,574 Descending Oakland Center
Sun 10:45:15 PM 39.1519 -121.6103 176° South 270 311 6,500 -1,389 Descending Oakland Center
Sun 10:45:49 PM 39.1167 -121.6000 167° South 258 297 5,800 -900 Descending Northern Cal TRACON
Sun 10:46:55 PM 39.0333 -121.6000 180° South 255 293 5,000 -667 Descending Northern Cal TRACON
Sun 10:47:55 PM 38.9667 -121.6000 180° South 267 307 4,400 -850 Descending Northern Cal TRACON
Sun 10:48:55 PM 38.8833 -121.6000 180° South 255 293 3,300 -800 Descending Northern Cal TRACON
Sun 10:49:55 PM 38.8333 -121.6000 180° South 189 217 2,800 -842 Descending Northern Cal TRACON
Sun 10:50:49 PM 38.8000 -121.6000 180° South 154 177 1,700 -1,000 Descending Northern Cal TRACON
Sun 10:51:49 PM 38.7500 -121.6000 180° South 144 166 900 -750 Descending Northern Cal TRACON
Sun 10:52:49 PM 38.7167 -121.6000 180° South 141 162 200 -700 Descending Northern Cal TRACON
Sun 10:55:00 PM 38.6954 -121.5908 180° South  Level Estimated
Sun 11:02:00 PM 38.6954 -121.5908 180° South  Level Estimated

Login

Don't have an account? Register now (free) for customized features, flight alerts, and more!